Главная страница
METAR-TAF:

METAR-TAF

Аэропорты :

Тунис-Карфаген

Тунис, Тунис

широта: 36-50N, долгота: 010-14E, высота над уровнем моря: 3 м

Текущие метеонаблюдения

Эта сводка был подготовлена 38 минут назад, в 02:30 UTC
Ветер 5 Узел от восточно-юго-восточный, изменяющийся между северо-восточный и южный
Температура 14°C
Влажность 88%
Давление 1021 hPa
Видимость 10 км и более
небольшая облачность на высоте 2300 фута

METAR: DTTA 100230Z 11005KT 050V170 9999 FEW023 14/12 Q1021

Время: 04:08 (03:08 UTC)

Прогноз

Эта сводка был подготовлена 4 часа и 8 минут назад, в 23:00 UTC
Прогноз действительный с 10-го 00 UTC до 10-го 24 UTC
Ветер 5 Узел от восточный
Видимость 10 км и более
Отдельные облака на высоте 2000 фута
Вероятность 30% :
временами
С 10-го 05 UTC до 10-го 08 UTC
Видимость: 3000 м
небольшая облачность на высоте 1400 фута
дымка

TAF: DTTA 092300Z 1000/1024 10005KT 9999 SCT020 PROB30 TEMPO 1005/1008 3000 BR FEW014

Метеонаблюдения и прогнозы для более 4000 аэропортов (сводки METAR и TAF).

Имеющиеся станции представлены на карте желтыми и красными точками.

Чтобы увидеть название станции, наведите на нее мышь.

Затем щелкните, чтобы увидеть метеонаблюдения и метеопрогнозы.

Управление картой: чтобы увеличить масштаб, щелкните зеленые кнопки с черным крестиком; чтобы уменьшить масштаб, щелкните зеленую кнопку с тире; для просмотра соседних карт щелкайте зеленые стрелки.


METAR-TAF: